Matamoras, Pennsylvania
Current Conditions -  °F | °C
As of 11:53 AM on Saturday 20 Dec 2014 (Local Time) from KFWN Reporting Station
Overcast Overcast  
Wind Chill: -4°   Ceiling: 2400
Heat Index: -1°   Visibility: 10mi
Dew Point: -7°   Wind: 5mph
Humidity: 66%   Direction: NA
Pressure: 30.26"   Gusts: NA
Location:  41.37°N, 74.7°W
Report Text: KFWN 201653Z AUTO VRB04KT 10SM OVC024 M01/M07 A3026 RMK AO2 SLP251 T10111067
Loading
Personal Weather Stations






























Interactive Weather Map New forecast layout! Learn more

10-Day Weather Forecast

Advertisements
Track Severe Weather on mobile